Cleveland, Ohio
Traffic Map
Current Weather Conditions
Cleveland, Ohio
Clear
Clear
66°
Feels Like: 66°
Wind Chill: 66° Ceiling: Unl
Heat Index: 66° Visibility: 10mi
Dew Point: 49° Wind: 9mph
Humidity: 54% Direction: 270° (W)
Pressure: 30.01in Gusts: 0mph
Raw Report DataKBKL 291653Z 27008KT 10SM CLR 19/09 A3001 RMK AO2 SLP162 T01890094 $
Traffic Incident Summary
Active as of:
Severity:
Category:
InformationThere was an issue retrieving the traffic information for this location. Please try a different location or try again shortly.
Advertisements
Track Severe Weather on mobile